FDX6030 RJAA-PANC
Flight info
| Callsign | FDX6030 |
|---|---|
| Flight time | N/A |
| Altitude | 37000 |
| Route | GULBO Y808 PUTER A590 HAMND NEELL7 |
| Aircraft | B77L/H-SDE1E2E3FGHIJ2J3J4J5M1RWXY/LB1D1 |
Departure
| Time | N/A |
|---|---|
| Airport | Narita International Airport (RJAA) |
Arrival
| Time | 2026-05-08 03:34 |
|---|---|
| Airport | Ted Stevens Anchorage International Airport (PANC) |
| Time | Latitude | Longitude | Altitude | Speed | Heading |
|---|---|---|---|---|---|
| 2026-05-08 03:34 | 61.18028 | -150.00019 | 145 ft | 16 kts | 345° |
| 2026-05-08 03:34 | 61.18117 | -150.00068 | 150 ft | 10 kts | 345° |
| 2026-05-08 03:35 | 61.18195 | -150.00112 | 150 ft | 15 kts | 345° |
| 2026-05-08 03:35 | 61.18312 | -150.00178 | 151 ft | 18 kts | 347° |
| 2026-05-08 03:35 | 61.18524 | -150.00295 | 152 ft | 19 kts | 346° |
| 2026-05-08 03:36 | 61.18654 | -150.00372 | 153 ft | 17 kts | 345° |
| 2026-05-08 03:36 | 61.18757 | -150.00428 | 155 ft | 15 kts | 346° |
| 2026-05-08 03:36 | 61.18852 | -150.00479 | 157 ft | 13 kts | 345° |
| 2026-05-08 03:36 | 61.18939 | -150.00529 | 154 ft | 13 kts | 344° |
| 2026-05-08 03:37 | 61.19021 | -150.00577 | 155 ft | 11 kts | 344° |
| 2026-05-08 03:37 | 61.19085 | -150.00614 | 155 ft | 9 kts | 344° |
| 2026-05-08 03:37 | 61.19096 | -150.00614 | 155 ft | 3 kts | 3° |
| 2026-05-08 03:37 | 61.19113 | -150.00578 | 154 ft | 1 kts | 56° |
| 2026-05-08 03:38 | 61.19121 | -150.00550 | 154 ft | 5 kts | 59° |
| 2026-05-08 03:38 | 61.19148 | -150.00392 | 150 ft | 15 kts | 75° |
| 2026-05-08 03:38 | 61.19180 | -150.00150 | 141 ft | 21 kts | 75° |
| 2026-05-08 03:38 | 61.19214 | -149.99889 | 130 ft | 20 kts | 76° |
| 2026-05-08 03:39 | 61.19242 | -149.99675 | 122 ft | 7 kts | 73° |
| 2026-05-08 03:39 | 61.19248 | -149.99614 | 120 ft | 0 kts | 90° |
| 2026-05-08 03:39 | 61.19246 | -149.99599 | 120 ft | 2 kts | 105° |
| 2026-05-08 03:39 | 61.19217 | -149.99560 | 118 ft | 4 kts | 169° |
| 2026-05-08 03:40 | 61.19210 | -149.99562 | 117 ft | 1 kts | 184° |
| 2026-05-08 03:40 | 61.19198 | -149.99579 | 119 ft | 8 kts | 216° |
| 2026-05-08 03:40 | 61.19178 | -149.99618 | 118 ft | 4 kts | 217° |
| 2026-05-08 03:40 | 61.19165 | -149.99633 | 119 ft | 1 kts | 204° |
| 2026-05-08 03:41 | 61.19162 | -149.99633 | 119 ft | 0 kts | 194° |
| 2026-05-08 03:41 | 61.19156 | -149.99646 | 121 ft | 3 kts | 222° |
| 2026-05-08 03:41 | 61.19147 | -149.99646 | 120 ft | 1 kts | 180° |
| 2026-05-08 03:41 | 61.19146 | -149.99645 | 120 ft | 0 kts | 177° |
| 2026-05-08 03:42 | 61.19144 | -149.99642 | 121 ft | 0 kts | 164° |